Time;durP1;ratioP1;P1;durP2;ratioP2;P2;SDS_P1;SDS_P2;PMS_P1;PMS_P2;Temp;Humidity;BMP_temperature;BMP_pressure;BME280_temperature;BME280_humidity;BME280_pressure;Samples;Min_cycle;Max_cycle;Signal;HPM_P1;HPM_P2
2021/05/26 00:01:09;;;;;;;1.50;1.23;;;10.80;99.90;;;;;;5099378;28;20457;-69
2021/05/26 00:03:36;;;;;;;1.50;1.10;;;10.80;99.90;;;;;;5101975;28;20453;-69
2021/05/26 00:06:02;;;;;;;1.30;1.10;;;10.70;99.90;;;;;;5101515;28;20453;-69
2021/05/26 00:08:31;;;;;;;1.20;1.10;;;10.70;99.90;;;;;;5099705;28;20457;-69
2021/05/26 00:10:58;;;;;;;2.07;1.20;;;10.70;99.90;;;;;;5097242;28;20522;-69
2021/05/26 00:13:26;;;;;;;1.77;1.23;;;10.70;99.90;;;;;;5098126;28;20457;-69
2021/05/26 00:15:53;;;;;;;1.50;1.40;;;10.70;99.90;;;;;;5100804;28;20477;-69
2021/05/26 00:18:20;;;;;;;1.70;1.20;;;10.70;99.90;;;;;;5101683;28;20461;-69
2021/05/26 00:20:47;;;;;;;1.80;1.40;;;10.60;99.90;;;;;;5102300;28;20460;-69
2021/05/26 00:23:13;;;;;;;2.10;1.20;;;10.60;99.90;;;;;;5103632;28;20800;-68
2021/05/26 00:25:40;;;;;;;2.03;1.20;;;10.60;99.90;;;;;;5102234;28;20976;-68
2021/05/26 00:28:07;;;;;;;1.10;1.00;;;10.50;99.90;;;;;;5099459;28;20480;-69
2021/05/26 00:30:43;;;;;;;1.37;1.00;;;10.50;99.90;;;;;;5099675;28;20468;-69
2021/05/26 00:33:09;;;;;;;2.90;1.30;;;10.50;99.90;;;;;;5098955;28;20527;-69
2021/05/26 00:35:36;;;;;;;2.90;1.30;;;10.40;99.90;;;;;;5100524;28;20481;-68
2021/05/26 00:38:02;;;;;;;1.33;1.00;;;10.40;99.90;;;;;;5099685;28;20526;-68
2021/05/26 00:40:31;;;;;;;1.83;1.23;;;10.40;99.90;;;;;;5097441;28;20464;-68
2021/05/26 00:42:58;;;;;;;1.93;1.23;;;10.40;99.90;;;;;;5097048;28;20461;-69
2021/05/26 00:45:24;;;;;;;1.13;1.03;;;10.40;99.90;;;;;;5096940;28;20457;-68
2021/05/26 00:47:51;;;;;;;1.63;1.10;;;10.40;99.90;;;;;;5097223;28;20491;-68
2021/05/26 00:50:20;;;;;;;1.33;1.20;;;10.40;99.90;;;;;;5097048;28;20464;-68
2021/05/26 00:52:46;;;;;;;1.47;1.20;;;10.40;99.90;;;;;;5096476;28;20457;-67
2021/05/26 00:55:15;;;;;;;1.63;1.10;;;10.40;99.90;;;;;;5097164;28;20461;-68
2021/05/26 00:57:41;;;;;;;2.80;1.20;;;10.40;99.90;;;;;;5096629;28;20495;-68
2021/05/26 01:00:11;;;;;;;1.30;1.20;;;10.40;99.90;;;;;;5096208;28;20445;-68
2021/05/26 01:02:37;;;;;;;1.43;1.20;;;10.40;99.90;;;;;;5095807;28;20955;-68
2021/05/26 01:05:05;;;;;;;2.03;1.30;;;10.40;99.90;;;;;;5095398;28;20567;-68
2021/05/26 01:07:31;;;;;;;2.30;1.20;;;10.40;99.90;;;;;;5096014;28;20468;-68
2021/05/26 01:09:57;;;;;;;2.50;1.07;;;10.50;99.90;;;;;;5096228;28;20464;-68
2021/05/26 01:12:24;;;;;;;1.07;0.90;;;10.50;99.90;;;;;;5096297;28;20468;-68
2021/05/26 01:14:52;;;;;;;1.77;1.00;;;10.50;99.90;;;;;;5096265;28;20761;-68
2021/05/26 01:17:19;;;;;;;1.60;1.00;;;10.50;99.90;;;;;;5096106;28;20481;-68
2021/05/26 01:19:45;;;;;;;1.10;0.90;;;10.50;99.90;;;;;;5095650;28;20994;-68
2021/05/26 01:22:12;;;;;;;1.60;1.50;;;10.50;99.90;;;;;;5095874;28;20461;-69
2021/05/26 01:24:38;;;;;;;1.97;1.30;;;10.50;99.90;;;;;;5095391;28;20465;-68
2021/05/26 01:27:05;;;;;;;5.73;1.13;;;10.50;99.90;;;;;;5095653;28;20491;-68
2021/05/26 01:29:32;;;;;;;1.27;1.00;;;10.40;99.90;;;;;;5095481;28;20458;-68
2021/05/26 01:31:59;;;;;;;1.23;1.13;;;10.50;99.90;;;;;;5095233;28;20485;-68
2021/05/26 01:34:25;;;;;;;1.10;0.90;;;10.50;99.90;;;;;;5095281;28;20468;-69
2021/05/26 01:36:52;;;;;;;1.57;1.27;;;10.50;99.90;;;;;;5095402;28;20488;-69
2021/05/26 01:39:22;;;;;;;1.20;0.90;;;10.60;99.90;;;;;;5095386;28;20538;-69
2021/05/26 01:41:49;;;;;;;1.10;1.00;;;10.60;99.90;;;;;;5094631;28;20445;-69
2021/05/26 01:44:15;;;;;;;3.97;1.40;;;10.50;99.90;;;;;;5095517;28;20463;-69
2021/05/26 01:46:42;;;;;;;1.80;1.20;;;10.50;99.90;;;;;;5095081;28;20833;-68
2021/05/26 01:49:09;;;;;;;1.50;1.10;;;10.50;99.90;;;;;;5095499;28;20457;-68
2021/05/26 01:51:36;;;;;;;1.60;1.20;;;10.50;99.90;;;;;;5095201;28;20469;-66
2021/05/26 01:54:03;;;;;;;2.10;1.30;;;10.60;99.90;;;;;;5095225;28;20769;-68
2021/05/26 01:56:31;;;;;;;1.43;1.33;;;10.50;99.90;;;;;;5094995;28;20477;-68
2021/05/26 01:58:58;;;;;;;4.30;1.30;;;10.50;99.90;;;;;;5095265;28;20759;-68
2021/05/26 02:01:25;;;;;;;1.70;1.13;;;10.50;99.90;;;;;;5096187;28;20461;-68
2021/05/26 02:03:52;;;;;;;2.27;1.10;;;10.50;99.90;;;;;;5095347;28;20464;-70
2021/05/26 02:06:21;;;;;;;1.30;1.13;;;10.50;99.90;;;;;;5094961;28;20834;-69
2021/05/26 02:08:50;;;;;;;6.03;1.33;;;10.50;99.90;;;;;;5095516;28;20465;-69
2021/05/26 02:14:04;;;;;;;1.40;1.27;;;10.40;99.90;;;;;;5095363;28;20461;-69
2021/05/26 02:16:31;;;;;;;2.30;1.23;;;10.50;99.90;;;;;;5095368;28;20477;-68
2021/05/26 02:18:57;;;;;;;1.90;1.20;;;10.40;99.90;;;;;;5095050;28;20457;-68
2021/05/26 02:21:23;;;;;;;3.43;1.20;;;10.40;99.90;;;;;;5094765;28;20453;-68
2021/05/26 02:23:50;;;;;;;2.80;1.50;;;10.40;99.90;;;;;;5095008;28;20760;-68
2021/05/26 02:26:16;;;;;;;3.17;1.30;;;10.40;99.90;;;;;;5094532;28;20473;-68
2021/05/26 02:28:42;;;;;;;3.00;1.20;;;10.40;99.90;;;;;;5094986;28;20826;-68
2021/05/26 02:31:11;;;;;;;1.57;1.20;;;10.50;99.90;;;;;;5095120;28;20549;-68
2021/05/26 02:33:38;;;;;;;1.50;1.30;;;10.50;99.90;;;;;;5094272;28;20485;-68
2021/05/26 02:36:05;;;;;;;1.53;1.23;;;10.50;99.90;;;;;;5094704;28;20481;-68
2021/05/26 02:38:32;;;;;;;2.03;1.13;;;10.50;99.90;;;;;;5094386;28;20457;-68
2021/05/26 02:40:58;;;;;;;2.37;1.37;;;10.50;99.90;;;;;;5094847;28;20457;-68
2021/05/26 02:43:25;;;;;;;1.77;1.13;;;10.50;99.90;;;;;;5094643;28;20456;-68
2021/05/26 02:45:52;;;;;;;4.70;1.40;;;10.50;99.90;;;;;;5094657;28;20449;-69
2021/05/26 02:48:19;;;;;;;5.27;1.37;;;10.50;99.90;;;;;;5094713;28;20484;-69
2021/05/26 02:50:45;;;;;;;1.40;0.97;;;10.50;99.90;;;;;;5095023;28;20944;-69
2021/05/26 02:53:11;;;;;;;2.00;1.23;;;10.50;99.90;;;;;;5097844;28;20457;-68
2021/05/26 02:55:38;;;;;;;2.20;1.20;;;10.50;99.90;;;;;;5098251;28;20937;-69
2021/05/26 02:58:04;;;;;;;2.77;1.13;;;10.50;99.90;;;;;;5098322;28;20453;-68
2021/05/26 03:00:30;;;;;;;1.30;1.20;;;10.50;99.90;;;;;;5098026;28;20465;-69
2021/05/26 03:02:57;;;;;;;1.57;1.47;;;10.50;99.90;;;;;;5099101;28;20598;-69
2021/05/26 03:05:25;;;;;;;1.70;1.37;;;10.60;99.90;;;;;;5099057;28;20526;-69
2021/05/26 03:07:51;;;;;;;1.93;1.10;;;10.50;99.90;;;;;;5097945;28;20514;-69
2021/05/26 03:10:19;;;;;;;1.70;1.60;;;10.60;99.90;;;;;;5098049;28;20456;-69
2021/05/26 03:12:46;;;;;;;2.90;1.30;;;10.50;99.90;;;;;;5098029;28;20914;-69
2021/05/26 03:15:15;;;;;;;1.60;1.30;;;10.50;99.90;;;;;;5097789;28;20473;-69
2021/05/26 03:17:44;;;;;;;1.50;1.20;;;10.50;99.90;;;;;;5098010;28;20465;-68
2021/05/26 03:20:15;;;;;;;2.23;1.50;;;10.50;99.90;;;;;;5098214;28;20517;-68
2021/05/26 03:22:43;;;;;;;1.50;1.20;;;10.60;99.90;;;;;;5098564;28;20434;-69
2021/05/26 03:25:11;;;;;;;1.40;1.30;;;10.60;99.90;;;;;;5098014;28;20461;-69
2021/05/26 03:27:39;;;;;;;2.03;1.10;;;10.60;99.90;;;;;;5099574;28;20460;-68
2021/05/26 03:30:08;;;;;;;2.90;1.20;;;10.60;99.90;;;;;;5097218;28;20515;-68
2021/05/26 03:32:35;;;;;;;4.80;1.30;;;10.70;99.90;;;;;;5097456;28;20496;-68
2021/05/26 03:35:01;;;;;;;2.17;1.30;;;10.70;99.90;;;;;;5097409;28;20798;-68
2021/05/26 03:37:28;;;;;;;2.23;1.40;;;10.70;99.90;;;;;;5097877;28;20481;-69
2021/05/26 03:39:55;;;;;;;3.17;1.27;;;10.70;99.90;;;;;;5097869;28;20791;-69
2021/05/26 03:42:22;;;;;;;1.60;1.40;;;10.70;99.90;;;;;;5097181;28;20906;-68
2021/05/26 03:44:48;;;;;;;1.87;1.37;;;10.70;99.90;;;;;;5097699;28;20461;-68
2021/05/26 03:47:14;;;;;;;2.37;1.70;;;10.70;99.90;;;;;;5097529;28;20760;-68
2021/05/26 03:49:41;;;;;;;2.40;1.53;;;10.70;99.90;;;;;;5097745;28;20464;-69
2021/05/26 03:52:07;;;;;;;1.83;1.37;;;10.70;99.90;;;;;;5097816;28;20463;-68
2021/05/26 03:54:34;;;;;;;1.87;1.23;;;10.80;99.90;;;;;;5098707;28;20782;-68
2021/05/26 03:57:01;;;;;;;1.83;1.20;;;10.80;99.90;;;;;;5099489;28;20510;-68
2021/05/26 03:59:28;;;;;;;2.13;1.47;;;10.80;99.90;;;;;;5100312;28;20925;-69
2021/05/26 04:01:54;;;;;;;1.70;1.60;;;10.80;99.90;;;;;;5096728;28;21034;-69
2021/05/26 04:04:20;;;;;;;3.23;1.50;;;10.80;99.90;;;;;;5096345;28;20466;-69
2021/05/26 04:06:47;;;;;;;2.07;1.60;;;10.80;99.90;;;;;;5096927;28;20453;-69
2021/05/26 04:09:13;;;;;;;2.70;2.00;;;10.90;99.90;;;;;;5099215;28;20467;-69
2021/05/26 04:11:39;;;;;;;1.50;1.30;;;10.90;99.90;;;;;;5096779;28;20464;-69
2021/05/26 04:14:07;;;;;;;2.53;1.57;;;11.00;99.90;;;;;;5097135;28;20836;-69
2021/05/26 04:16:33;;;;;;;1.40;1.30;;;11.00;99.90;;;;;;5096985;28;20477;-69
2021/05/26 04:18:59;;;;;;;3.60;1.53;;;11.10;99.90;;;;;;5097035;28;20482;-69
2021/05/26 04:21:26;;;;;;;2.07;1.87;;;11.20;99.90;;;;;;5097253;28;20518;-69
2021/05/26 04:23:55;;;;;;;1.47;1.30;;;11.20;99.90;;;;;;5097265;28;20457;-69
2021/05/26 04:26:21;;;;;;;1.73;1.20;;;11.30;99.90;;;;;;5103161;28;20566;-69
2021/05/26 04:28:47;;;;;;;2.17;1.37;;;11.30;99.90;;;;;;5102611;28;20454;-69
2021/05/26 04:31:15;;;;;;;3.17;1.47;;;11.20;99.90;;;;;;5102010;28;20453;-69
2021/05/26 04:33:41;;;;;;;2.03;1.43;;;11.20;99.90;;;;;;5098475;28;20473;-69
2021/05/26 04:36:08;;;;;;;4.00;1.83;;;11.20;99.90;;;;;;5098164;28;20485;-68
2021/05/26 04:38:35;;;;;;;3.73;1.70;;;11.20;99.90;;;;;;5099598;28;20457;-68
2021/05/26 04:41:02;;;;;;;1.80;1.53;;;11.20;99.90;;;;;;5097027;28;20457;-68
2021/05/26 04:43:28;;;;;;;2.40;1.80;;;11.20;99.90;;;;;;5101173;28;20488;-69
2021/05/26 04:45:55;;;;;;;2.70;1.50;;;11.20;99.90;;;;;;5096800;28;20457;-70
2021/05/26 04:48:22;;;;;;;2.47;2.10;;;11.20;99.90;;;;;;5096110;28;20449;-68
2021/05/26 04:50:48;;;;;;;2.43;1.40;;;11.30;99.90;;;;;;5097205;28;20479;-68
2021/05/26 04:53:15;;;;;;;2.30;2.00;;;11.40;99.90;;;;;;5097361;28;20456;-68
2021/05/26 04:55:41;;;;;;;2.00;1.80;;;11.40;99.90;;;;;;5098798;28;20481;-68
2021/05/26 04:58:08;;;;;;;2.30;2.10;;;11.50;99.90;;;;;;5096474;28;20465;-68
2021/05/26 05:00:35;;;;;;;1.97;1.70;;;11.50;99.90;;;;;;5095771;28;20453;-67
2021/05/26 05:03:02;;;;;;;2.67;2.20;;;11.50;99.90;;;;;;5096395;28;20461;-68
2021/05/26 05:05:31;;;;;;;1.80;1.70;;;11.50;99.90;;;;;;5096965;28;20518;-68
2021/05/26 05:07:58;;;;;;;2.03;1.70;;;11.60;99.90;;;;;;5096367;28;20457;-68
2021/05/26 05:10:24;;;;;;;2.77;2.30;;;11.60;99.90;;;;;;5096602;28;20453;-69
2021/05/26 05:12:50;;;;;;;3.77;1.67;;;11.60;99.90;;;;;;5096358;28;20453;-68
2021/05/26 05:15:16;;;;;;;1.70;1.60;;;11.60;99.90;;;;;;5096157;28;20453;-68
2021/05/26 05:17:45;;;;;;;3.73;2.30;;;11.60;99.90;;;;;;5095936;28;20588;-68
2021/05/26 05:20:14;;;;;;;2.10;1.73;;;11.60;99.90;;;;;;5095868;28;20475;-69
2021/05/26 05:22:41;;;;;;;2.40;1.80;;;11.60;99.90;;;;;;5096255;28;20458;-69
2021/05/26 05:25:09;;;;;;;2.13;1.93;;;11.60;99.90;;;;;;5095513;28;20468;-68
2021/05/26 05:27:35;;;;;;;2.10;1.90;;;11.70;99.90;;;;;;5095419;28;20453;-68
2021/05/26 05:30:01;;;;;;;1.93;1.73;;;11.80;99.90;;;;;;5095684;28;20459;-68
2021/05/26 05:32:27;;;;;;;2.00;1.80;;;11.90;99.90;;;;;;5094961;28;20485;-68
2021/05/26 05:34:53;;;;;;;2.40;1.83;;;11.90;99.90;;;;;;5095344;28;20457;-68
2021/05/26 05:37:20;;;;;;;2.70;1.73;;;12.00;99.90;;;;;;5095523;28;20489;-68
2021/05/26 05:39:47;;;;;;;1.70;1.60;;;12.10;99.90;;;;;;5094766;28;20509;-69
2021/05/26 05:42:13;;;;;;;2.27;1.83;;;12.10;99.90;;;;;;5095266;28;20457;-69
2021/05/26 05:44:39;;;;;;;2.53;2.20;;;12.10;99.90;;;;;;5095301;28;20775;-69
2021/05/26 05:47:06;;;;;;;2.47;2.00;;;12.20;99.90;;;;;;5094976;28;20878;-69
2021/05/26 05:49:32;;;;;;;5.27;2.23;;;12.20;99.90;;;;;;5095019;28;20614;-69
2021/05/26 05:51:58;;;;;;;3.13;1.70;;;12.30;99.90;;;;;;5094904;28;20509;-68
2021/05/26 05:54:24;;;;;;;2.27;2.10;;;12.30;99.90;;;;;;5094954;28;20453;-68
2021/05/26 05:56:51;;;;;;;4.63;2.10;;;12.30;99.90;;;;;;5094659;28;20484;-68
2021/05/26 05:59:18;;;;;;;2.57;2.37;;;12.30;99.90;;;;;;5094933;28;20921;-70
2021/05/26 06:01:44;;;;;;;4.27;2.50;;;12.30;99.90;;;;;;5095285;28;20457;-69
2021/05/26 06:04:10;;;;;;;4.73;2.30;;;12.30;99.90;;;;;;5095137;28;20457;-70
2021/05/26 06:06:36;;;;;;;3.70;2.30;;;12.30;99.90;;;;;;5094621;28;20457;-68
2021/05/26 06:09:03;;;;;;;3.03;2.17;;;12.30;99.90;;;;;;5094977;28;20458;-68
2021/05/26 06:11:33;;;;;;;3.10;2.00;;;12.30;99.90;;;;;;5095056;28;20817;-69
2021/05/26 06:14:04;;;;;;;3.70;1.90;;;12.30;99.90;;;;;;5095017;28;20463;-69
2021/05/26 06:16:32;;;;;;;2.80;1.97;;;12.40;99.90;;;;;;5094932;28;20523;-69
2021/05/26 06:18:58;;;;;;;3.40;2.30;;;12.40;99.90;;;;;;5094630;28;20933;-68
2021/05/26 06:21:24;;;;;;;1.70;1.60;;;12.50;99.90;;;;;;5094834;28;20465;-68
2021/05/26 06:23:50;;;;;;;2.90;1.97;;;12.50;99.90;;;;;;5094660;28;20468;-68
2021/05/26 06:26:16;;;;;;;2.43;2.10;;;12.50;99.90;;;;;;5095261;28;20449;-69
2021/05/26 06:28:43;;;;;;;2.30;1.93;;;12.50;99.90;;;;;;5098943;28;20503;-69
2021/05/26 06:31:10;;;;;;;3.57;2.10;;;12.50;99.90;;;;;;5098886;28;20441;-70
2021/05/26 06:33:36;;;;;;;4.03;2.23;;;12.50;99.90;;;;;;5099262;28;20888;-69
2021/05/26 06:36:03;;;;;;;4.00;2.33;;;12.60;99.90;;;;;;5098789;28;20477;-69
2021/05/26 06:38:29;;;;;;;5.83;1.83;;;12.60;99.90;;;;;;5098368;28;20456;-69
2021/05/26 06:40:55;;;;;;;4.33;2.00;;;12.70;99.90;;;;;;5098760;28;20866;-68
2021/05/26 06:43:21;;;;;;;3.63;2.03;;;12.70;99.90;;;;;;5099629;28;20468;-69
2021/05/26 06:45:47;;;;;;;2.40;1.63;;;12.80;99.90;;;;;;5098635;28;20530;-69
2021/05/26 06:48:15;;;;;;;3.00;2.10;;;12.90;99.90;;;;;;5098228;28;20471;-69
2021/05/26 06:50:41;;;;;;;2.80;2.00;;;12.90;99.90;;;;;;5098309;28;20457;-70
2021/05/26 06:53:07;;;;;;;3.67;2.40;;;12.90;99.90;;;;;;5098983;28;20453;-70
2021/05/26 06:55:33;;;;;;;2.90;2.17;;;13.00;99.90;;;;;;5097800;28;21086;-69
2021/05/26 06:57:59;;;;;;;5.80;2.50;;;13.10;99.90;;;;;;5098170;28;20941;-69
2021/05/26 07:00:26;;;;;;;2.87;2.10;;;13.20;99.90;;;;;;5098267;28;20457;-68
2021/05/26 07:02:52;;;;;;;2.77;2.00;;;13.40;99.90;;;;;;5098672;28;20464;-69
2021/05/26 07:05:19;;;;;;;3.57;2.10;;;13.40;99.90;;;;;;5098843;28;20925;-68
2021/05/26 07:07:45;;;;;;;12.87;3.60;;;13.40;99.90;;;;;;5098743;28;20453;-69
2021/05/26 07:10:12;;;;;;;3.33;2.23;;;13.40;99.90;;;;;;5098331;28;20464;-69
2021/05/26 07:12:38;;;;;;;2.83;2.07;;;13.40;99.90;;;;;;5099387;28;20449;-69
2021/05/26 07:15:06;;;;;;;1.80;1.70;;;13.50;99.90;;;;;;5101103;28;20453;-68
2021/05/26 07:17:32;;;;;;;2.13;1.80;;;13.50;99.90;;;;;;5099961;28;20477;-69
2021/05/26 07:19:59;;;;;;;4.20;1.90;;;13.60;99.90;;;;;;5098325;28;20453;-69
2021/05/26 07:22:28;;;;;;;3.53;2.37;;;13.70;99.90;;;;;;5098236;28;20559;-68
2021/05/26 07:24:54;;;;;;;2.70;2.17;;;13.80;99.90;;;;;;5098358;28;20568;-69
2021/05/26 07:27:20;;;;;;;3.30;2.37;;;13.80;99.90;;;;;;5098415;28;20464;-69
2021/05/26 07:29:47;;;;;;;4.27;2.20;;;13.80;99.90;;;;;;5097741;28;20472;-68
2021/05/26 07:32:13;;;;;;;4.33;2.10;;;13.70;99.90;;;;;;5097344;28;20810;-68
2021/05/26 07:34:39;;;;;;;3.57;2.47;;;13.80;99.90;;;;;;5097710;28;20744;-68
2021/05/26 07:37:05;;;;;;;3.20;2.10;;;13.80;99.90;;;;;;5097723;28;20478;-69
2021/05/26 07:39:35;;;;;;;3.57;2.10;;;13.90;99.90;;;;;;5099201;28;20458;-70
2021/05/26 07:42:01;;;;;;;3.67;1.80;;;14.00;99.90;;;;;;5099291;28;20590;-70
2021/05/26 07:44:27;;;;;;;2.20;2.00;;;14.00;99.90;;;;;;5098137;28;20517;-71
2021/05/26 07:46:54;;;;;;;2.90;2.20;;;14.10;99.90;;;;;;5097533;28;20886;-70
2021/05/26 07:49:20;;;;;;;2.70;2.27;;;14.20;99.90;;;;;;5100966;28;20453;-69
2021/05/26 07:51:50;;;;;;;2.53;2.33;;;14.40;99.90;;;;;;5099504;28;20476;-69
2021/05/26 07:54:17;;;;;;;3.23;2.13;;;14.50;99.90;;;;;;5099819;28;20476;-69
2021/05/26 07:56:44;;;;;;;1.80;1.70;;;14.50;99.90;;;;;;5100402;28;20485;-69
2021/05/26 07:59:10;;;;;;;6.83;2.17;;;14.50;99.90;;;;;;5098237;28;20905;-69
2021/05/26 08:01:36;;;;;;;2.33;1.70;;;14.50;99.90;;;;;;5099280;28;20454;-69
2021/05/26 08:04:03;;;;;;;2.10;1.90;;;14.50;99.90;;;;;;5098218;28;20457;-69
2021/05/26 08:06:29;;;;;;;2.67;1.60;;;14.60;99.90;;;;;;5098069;28;20449;-68
2021/05/26 08:08:55;;;;;;;2.03;1.47;;;14.70;99.90;;;;;;5097162;28;20460;-68
2021/05/26 08:11:22;;;;;;;4.43;1.73;;;15.00;99.90;;;;;;5097319;28;20457;-70
2021/05/26 08:13:49;;;;;;;5.30;1.70;;;15.10;99.90;;;;;;5097428;28;20464;-69
2021/05/26 08:16:15;;;;;;;5.00;1.83;;;15.20;99.90;;;;;;5097247;28;20477;-68
2021/05/26 08:18:41;;;;;;;2.13;1.70;;;15.20;99.90;;;;;;5096474;28;20944;-67
2021/05/26 08:21:08;;;;;;;3.67;2.00;;;15.10;99.90;;;;;;5096459;28;20485;-69
2021/05/26 08:23:34;;;;;;;4.40;2.13;;;14.90;99.90;;;;;;5096616;28;20552;-68
2021/05/26 08:26:01;;;;;;;2.17;1.70;;;14.90;99.90;;;;;;5096345;28;20813;-69
2021/05/26 08:28:27;;;;;;;2.33;1.80;;;14.90;99.90;;;;;;5096311;28;20461;-68
2021/05/26 08:30:54;;;;;;;3.10;1.50;;;14.90;99.90;;;;;;5096829;28;20549;-68
2021/05/26 08:33:20;;;;;;;2.80;1.63;;;14.90;99.90;;;;;;5096928;28;20481;-69
2021/05/26 08:35:47;;;;;;;3.93;1.60;;;14.90;99.90;;;;;;5096496;28;20458;-68
2021/05/26 08:38:13;;;;;;;2.07;1.60;;;14.90;99.90;;;;;;5096778;28;20458;-68
2021/05/26 08:40:39;;;;;;;3.10;1.90;;;14.90;99.90;;;;;;5096465;28;20453;-68
2021/05/26 08:43:06;;;;;;;5.47;1.50;;;14.80;99.90;;;;;;5096482;28;20453;-68
2021/05/26 08:45:33;;;;;;;6.63;1.60;;;14.80;99.90;;;;;;5096893;28;20801;-68
2021/05/26 08:48:05;;;;;;;6.30;1.60;;;14.80;99.90;;;;;;5096171;28;20454;-69
2021/05/26 08:50:32;;;;;;;2.17;1.50;;;14.80;99.90;;;;;;5095507;28;20514;-68
2021/05/26 08:52:58;;;;;;;3.30;1.77;;;14.90;99.90;;;;;;5096055;28;20574;-69
2021/05/26 08:55:26;;;;;;;2.00;1.40;;;15.10;99.90;;;;;;5095853;28;20457;-68
2021/05/26 08:57:52;;;;;;;3.17;1.73;;;15.20;99.90;;;;;;5095516;28;20484;-68
2021/05/26 09:00:19;;;;;;;1.80;1.30;;;15.40;99.90;;;;;;5095795;28;20458;-68
2021/05/26 09:02:45;;;;;;;4.33;1.67;;;15.60;99.90;;;;;;5096022;28;20460;-68
2021/05/26 09:05:23;;;;;;;5.10;1.70;;;15.70;99.90;;;;;;5095531;28;20464;-68
2021/05/26 09:07:49;;;;;;;2.17;1.37;;;15.80;99.90;;;;;;5096173;28;20442;-68
2021/05/26 09:10:16;;;;;;;2.47;1.40;;;15.90;99.90;;;;;;5096010;28;20457;-68
2021/05/26 09:12:43;;;;;;;1.60;1.33;;;15.80;99.90;;;;;;5096191;28;20568;-69
2021/05/26 09:15:14;;;;;;;2.30;1.43;;;15.70;99.90;;;;;;5095572;28;20525;-70
2021/05/26 09:17:40;;;;;;;5.43;1.53;;;15.60;99.90;;;;;;5095863;28;20560;-68
2021/05/26 09:20:22;;;;;;;4.57;1.63;;;15.60;99.90;;;;;;5096440;28;20524;-68
2021/05/26 09:23:02;;;;;;;4.40;1.43;;;15.50;99.90;;;;;;5095668;28;20774;-68
2021/05/26 09:25:30;;;;;;;2.13;1.40;;;15.40;99.90;;;;;;5095945;28;20437;-68
2021/05/26 09:28:16;;;;;;;4.23;1.37;;;15.30;99.90;;;;;;5096370;28;20454;-69
2021/05/26 09:30:43;;;;;;;2.57;1.27;;;15.30;99.90;;;;;;5096371;28;20453;-68
2021/05/26 09:33:27;;;;;;;3.33;1.60;;;15.20;99.90;;;;;;5095332;28;20484;-68
2021/05/26 09:36:19;;;;;;;2.07;1.30;;;15.10;99.90;;;;;;5095351;28;20441;-68
2021/05/26 09:38:48;;;;;;;2.17;1.30;;;15.10;99.90;;;;;;5095853;28;20496;-69
2021/05/26 09:41:17;;;;;;;2.87;1.20;;;15.00;99.90;;;;;;5095516;28;20936;-68
2021/05/26 09:43:49;;;;;;;1.70;1.60;;;15.00;99.90;;;;;;5095401;28;20531;-68
2021/05/26 09:46:19;;;;;;;2.47;1.47;;;15.10;99.90;;;;;;5095234;28;20448;-68
2021/05/26 09:49:03;;;;;;;2.93;1.57;;;15.20;99.90;;;;;;5095728;28;20691;-69
2021/05/26 09:51:31;;;;;;;2.23;1.40;;;15.30;99.90;;;;;;5095328;28;20494;-68
2021/05/26 09:54:15;;;;;;;2.50;1.30;;;15.50;99.90;;;;;;5096137;28;20494;-69
2021/05/26 09:56:43;;;;;;;3.93;2.03;;;15.70;99.90;;;;;;5095902;28;20476;-69
2021/05/26 09:59:09;;;;;;;2.60;1.30;;;15.80;99.90;;;;;;5094726;28;20898;-69
2021/05/26 10:01:37;;;;;;;1.87;1.47;;;16.00;99.90;;;;;;5093832;28;20457;-69
2021/05/26 10:04:03;;;;;;;2.17;1.30;;;16.00;99.90;;;;;;5095063;28;20453;-69
2021/05/26 10:06:31;;;;;;;4.33;1.50;;;16.00;99.90;;;;;;5094697;28;20450;-69
2021/05/26 10:08:58;;;;;;;2.67;1.53;;;15.90;99.90;;;;;;5095360;28;20464;-68
2021/05/26 10:11:28;;;;;;;1.90;1.30;;;15.80;99.90;;;;;;5095049;28;20523;-69
2021/05/26 10:13:55;;;;;;;5.20;1.70;;;15.60;99.90;;;;;;5094893;28;20544;-69
2021/05/26 10:16:22;;;;;;;2.30;1.40;;;15.50;99.90;;;;;;5094998;28;20492;-68
2021/05/26 10:18:49;;;;;;;2.30;1.30;;;15.40;99.90;;;;;;5095711;28;20465;-70
2021/05/26 10:21:17;;;;;;;3.60;1.20;;;15.50;99.90;;;;;;5096233;28;20453;-69
2021/05/26 10:23:44;;;;;;;3.17;1.33;;;15.60;99.90;;;;;;5095413;28;20457;-68
2021/05/26 10:26:10;;;;;;;2.40;1.40;;;15.70;99.90;;;;;;5095050;28;20453;-68
2021/05/26 10:28:37;;;;;;;4.60;1.40;;;15.90;99.90;;;;;;5095549;28;20457;-68
2021/05/26 10:31:05;;;;;;;2.27;1.37;;;16.00;99.90;;;;;;5097222;28;20948;-68
2021/05/26 10:33:51;;;;;;;1.63;1.30;;;16.10;99.90;;;;;;5097273;28;20495;-69
2021/05/26 10:36:18;;;;;;;2.30;1.13;;;16.20;98.20;;;;;;5095960;28;20488;-69
2021/05/26 10:38:58;;;;;;;1.77;1.00;;;16.10;32.50;;;;;;5096207;28;21000;-68
2021/05/26 10:41:25;;;;;;;1.77;1.20;;;16.00;11.00;;;;;;5095018;28;20442;-68
2021/05/26 10:43:55;;;;;;;1.67;0.87;;;16.00;9.80;;;;;;5094595;28;20460;-68
2021/05/26 10:46:33;;;;;;;2.53;1.07;;;15.80;4.30;;;;;;5095273;28;20464;-68
2021/05/26 10:49:00;;;;;;;3.10;1.33;;;15.70;18.80;;;;;;5095098;28;20449;-68
2021/05/26 10:52:05;;;;;;;1.60;1.20;;;15.80;20.80;;;;;;5094381;28;20460;-68
2021/05/26 10:54:58;;;;;;;1.93;1.23;;;15.90;23.80;;;;;;5092395;28;20473;-68
2021/05/26 10:57:25;;;;;;;2.47;1.50;;;16.10;26.10;;;;;;5094493;28;20466;-68
2021/05/26 11:00:28;;;;;;;3.83;2.10;;;16.20;27.30;;;;;;5094540;28;20791;-68
2021/05/26 11:03:41;;;;;;;3.40;2.33;;;16.40;30.80;;;;;;5094745;28;20518;-68
2021/05/26 11:06:39;;;;;;;4.00;1.37;;;16.40;46.20;;;;;;5095456;28;20447;-68
2021/05/26 11:09:09;;;;;;;1.93;1.40;;;16.50;48.20;;;;;;5088956;28;20874;-68
2021/05/26 11:12:05;;;;;;;3.90;1.97;;;16.50;59.10;;;;;;5094832;28;20552;-69
2021/05/26 11:14:33;;;;;;;3.43;1.63;;;16.70;53.40;;;;;;5098434;28;20441;-68
2021/05/26 11:17:21;;;;;;;3.60;1.53;;;16.80;53.20;;;;;;5097887;28;20537;-69
2021/05/26 11:19:48;;;;;;;5.40;1.87;;;17.00;57.60;;;;;;5098042;28;20457;-68
2021/05/26 11:22:15;;;;;;;2.07;1.50;;;17.10;60.70;;;;;;5098007;28;20952;-68
2021/05/26 11:24:43;;;;;;;6.73;2.37;;;17.30;54.50;;;;;;5098286;28;20459;-70
2021/05/26 11:27:18;;;;;;;2.37;1.70;;;17.50;52.30;;;;;;5097757;28;20753;-69
2021/05/26 11:29:48;;;;;;;2.80;1.50;;;17.70;34.30;;;;;;5097612;28;20456;-68
2021/05/26 11:32:16;;;;;;;4.30;2.20;;;17.80;26.80;;;;;;5097623;28;20848;-68
2021/05/26 11:34:44;;;;;;;4.57;1.87;;;18.20;18.60;;;;;;5097830;28;20472;-69
2021/05/26 11:37:12;;;;;;;2.50;1.30;;;18.80;5.20;;;;;;5097058;28;20480;-67
2021/05/26 11:39:39;;;;;;;3.67;1.57;;;19.40;1.00;;;;;;5097231;28;20553;-69
2021/05/26 11:42:09;;;;;;;1.90;1.20;;;20.00;1.00;;;;;;5097432;28;20484;-69
2021/05/26 11:44:36;;;;;;;3.83;1.70;;;19.90;1.00;;;;;;5097144;28;20552;-69
2021/05/26 11:47:03;;;;;;;1.30;1.10;;;19.50;1.00;;;;;;5097056;28;20445;-69
2021/05/26 11:49:31;;;;;;;3.30;1.20;;;19.30;1.00;;;;;;5097869;28;20462;-68
2021/05/26 11:52:03;;;;;;;2.43;1.07;;;19.20;1.00;;;;;;5098154;28;20453;-69
2021/05/26 11:54:29;;;;;;;1.60;0.90;;;19.40;1.00;;;;;;5096887;28;20453;-67
2021/05/26 11:57:00;;;;;;;2.80;0.93;;;20.00;1.00;;;;;;5098173;28;20481;-68
2021/05/26 11:59:28;;;;;;;1.50;0.80;;;20.60;1.00;;;;;;5096903;28;20914;-69
2021/05/26 12:01:54;;;;;;;2.73;1.03;;;21.20;1.00;;;;;;5097792;28;20908;-67
2021/05/26 12:04:24;;;;;;;3.00;1.20;;;21.70;1.00;;;;;;5097982;28;20457;-69
2021/05/26 12:06:51;;;;;;;2.60;0.90;;;21.50;1.00;;;;;;5098191;28;20813;-68
2021/05/26 12:09:28;;;;;;;1.50;0.80;;;20.90;1.00;;;;;;5099546;28;20787;-69
2021/05/26 12:11:55;;;;;;;2.13;0.97;;;20.10;1.00;;;;;;5097790;28;20461;-69
2021/05/26 12:14:29;;;;;;;2.80;1.40;;;19.30;1.00;;;;;;5097541;28;20457;-69
2021/05/26 12:16:55;;;;;;;1.40;1.10;;;18.80;1.00;;;;;;5097161;28;20530;-69
2021/05/26 12:19:28;;;;;;;3.97;1.00;;;18.80;1.00;;;;;;5096912;28;20454;-68
2021/05/26 12:22:14;;;;;;;2.13;0.90;;;18.80;1.00;;;;;;5096868;28;20441;-69
2021/05/26 12:24:58;;;;;;;2.00;0.90;;;18.70;1.00;;;;;;5095505;28;20441;-69
2021/05/26 12:27:42;;;;;;;1.10;0.80;;;18.60;1.00;;;;;;5095964;28;20457;-69
2021/05/26 12:30:21;;;;;;;2.63;1.20;;;18.60;1.00;;;;;;5097822;28;20430;-68
2021/05/26 12:32:48;;;;;;;1.30;0.77;;;18.60;1.00;;;;;;5097058;28;20477;-69
2021/05/26 12:35:17;;;;;;;1.73;1.10;;;19.00;1.00;;;;;;5097105;28;20789;-69
2021/05/26 12:37:45;;;;;;;2.17;0.70;;;19.50;1.00;;;;;;5096485;28;20481;-69
2021/05/26 12:40:28;;;;;;;1.60;0.90;;;19.30;1.00;;;;;;5096141;28;20556;-69
2021/05/26 12:42:55;;;;;;;1.53;0.60;;;18.90;1.00;;;;;;5096496;28;20441;-69
2021/05/26 12:45:25;;;;;;;4.10;0.80;;;18.40;1.00;;;;;;5096668;28;20453;-69
2021/05/26 12:47:52;;;;;;;1.00;0.70;;;18.20;1.00;;;;;;5096544;28;20886;-69
2021/05/26 12:50:20;;;;;;;2.47;1.20;;;18.60;1.00;;;;;;5096569;28;20461;-69
2021/05/26 12:52:50;;;;;;;2.63;0.90;;;19.10;1.00;;;;;;5097345;28;20457;-69
2021/05/26 12:55:18;;;;;;;1.37;0.93;;;19.10;1.00;;;;;;5097459;28;20457;-68
2021/05/26 12:57:44;;;;;;;2.10;0.70;;;19.00;1.00;;;;;;5096278;28;20561;-68